createdAt,value
2019-02-07T00:00:12.196Z,-0.50
2019-02-07T00:02:42.945Z,-0.60
2019-02-07T00:05:16.598Z,-0.60
2019-02-07T00:07:46.726Z,-0.60
2019-02-07T00:10:17.899Z,-0.50
2019-02-07T00:12:48.247Z,-0.60
2019-02-07T00:15:18.665Z,-0.60
2019-02-07T00:17:48.068Z,-0.60
2019-02-07T00:20:17.993Z,-0.70
2019-02-07T00:22:48.360Z,-0.60
2019-02-07T00:25:18.624Z,-0.60
2019-02-07T00:27:49.125Z,-0.60
2019-02-07T00:30:20.751Z,-0.60
2019-02-07T00:32:50.726Z,-0.60
2019-02-07T00:35:21.667Z,-0.60
2019-02-07T00:37:51.706Z,-0.60
2019-02-07T00:40:22.062Z,-0.60
2019-02-07T00:42:53.676Z,-0.60
2019-02-07T00:45:24.727Z,-0.60
2019-02-07T00:47:59.956Z,-0.60
2019-02-07T00:50:31.129Z,-0.70
2019-02-07T00:53:05.769Z,-0.70
2019-02-07T00:55:35.961Z,-0.70
2019-02-07T00:58:06.485Z,-0.80
2019-02-07T01:00:39.682Z,-0.70
2019-02-07T01:03:11.347Z,-0.70
2019-02-07T01:05:46.327Z,-0.70
2019-02-07T01:08:16.366Z,-0.70
2019-02-07T01:10:46.015Z,-0.70
2019-02-07T01:13:16.346Z,-0.70
2019-02-07T01:15:46.173Z,-0.70
2019-02-07T01:18:16.899Z,-0.80
2019-02-07T01:20:47.107Z,-0.80
2019-02-07T01:23:17.178Z,-0.80
2019-02-07T01:25:47.523Z,-0.90
2019-02-07T01:28:18.204Z,-0.90
2019-02-07T01:30:48.663Z,-0.80
2019-02-07T01:33:19.108Z,-0.80
2019-02-07T01:35:49.301Z,-0.90
2019-02-07T01:38:19.122Z,-0.80
2019-02-07T01:40:49.212Z,-0.90
2019-02-07T01:43:19.355Z,-0.90
2019-02-07T01:45:49.406Z,-0.90
2019-02-07T01:48:19.420Z,-0.90
2019-02-07T01:50:53.029Z,-0.80
2019-02-07T01:53:23.175Z,-0.90
2019-02-07T01:55:55.649Z,-0.90
2019-02-07T01:58:26.042Z,-0.90
2019-02-07T02:00:56.860Z,-0.90
2019-02-07T02:03:26.920Z,-0.90
2019-02-07T02:05:57.253Z,-1.00
2019-02-07T02:08:29.573Z,-1.00
2019-02-07T02:10:59.670Z,-1.00
2019-02-07T02:13:29.656Z,-0.90
2019-02-07T02:15:59.643Z,-1.00
2019-02-07T02:18:30.351Z,-1.00
2019-02-07T02:21:01.587Z,-1.00
2019-02-07T02:23:31.744Z,-1.00
2019-02-07T02:26:01.960Z,-1.00
2019-02-07T02:28:35.952Z,-1.00
2019-02-07T02:31:05.813Z,-1.00
2019-02-07T02:33:35.719Z,-1.10
2019-02-07T02:36:11.991Z,-1.00
2019-02-07T02:38:43.174Z,-1.10
2019-02-07T02:41:13.368Z,-1.10
2019-02-07T02:43:43.215Z,-1.10
2019-02-07T02:46:15.444Z,-1.10
2019-02-07T02:48:45.237Z,-1.10
2019-02-07T02:51:15.136Z,-1.00
2019-02-07T02:54:01.377Z,-1.10
2019-02-07T02:56:31.521Z,-1.10
2019-02-07T02:59:02.360Z,-1.10
2019-02-07T03:01:54.484Z,-1.10
2019-02-07T03:04:40.679Z,-1.20
2019-02-07T03:07:30.105Z,-1.30
2019-02-07T03:10:33.556Z,-1.40
2019-02-07T03:13:15.989Z,-1.40
2019-02-07T03:16:23.121Z,-1.30
2019-02-07T03:19:17.810Z,-1.20
2019-02-07T03:22:12.980Z,-1.10
2019-02-07T03:25:00.563Z,-1.10
2019-02-07T03:27:58.551Z,-1.10
2019-02-07T03:30:45.306Z,-1.00
2019-02-07T03:33:40.631Z,-1.20
2019-02-07T03:36:43.373Z,-1.10
2019-02-07T03:39:44.229Z,-1.10
2019-02-07T03:42:32.982Z,-1.00
2019-02-07T03:45:20.744Z,-1.00
2019-02-07T03:48:09.679Z,-1.10
2019-02-07T03:50:58.368Z,-1.10
2019-02-07T03:53:46.032Z,-1.10
2019-02-07T03:56:37.672Z,-1.10
2019-02-07T03:59:15.957Z,-1.00
2019-02-07T04:01:54.724Z,-0.90
2019-02-07T04:04:47.894Z,-0.90
2019-02-07T04:07:35.121Z,-0.90
2019-02-07T04:10:23.058Z,-0.80
2019-02-07T04:13:17.372Z,-0.70
2019-02-07T04:16:15.327Z,-0.60
2019-02-07T04:18:58.755Z,-0.70
2019-02-07T04:21:42.786Z,-0.80
2019-02-07T04:24:46.827Z,-0.80
2019-02-07T04:27:41.213Z,-0.70
2019-02-07T04:30:30.786Z,-0.70
2019-02-07T04:33:22.626Z,-0.80
2019-02-07T04:36:20.198Z,-0.80
2019-02-07T04:39:08.809Z,-0.80
2019-02-07T04:41:57.196Z,-0.80
2019-02-07T04:44:52.467Z,-0.80
2019-02-07T04:47:41.731Z,-0.80
2019-02-07T04:50:34.436Z,-0.70
2019-02-07T04:53:36.042Z,-0.70
2019-02-07T04:56:28.016Z,-0.70
2019-02-07T04:59:26.331Z,-0.70
2019-02-07T05:02:17.289Z,-0.70
2019-02-07T05:05:05.282Z,-0.60
2019-02-07T05:08:03.191Z,-0.60
2019-02-07T05:10:55.721Z,-0.60
2019-02-07T05:13:36.801Z,-0.70
2019-02-07T05:16:18.614Z,-0.70
2019-02-07T05:19:13.696Z,-0.80
2019-02-07T05:22:06.523Z,-0.70
2019-02-07T05:25:01.504Z,-0.70
2019-02-07T05:27:57.126Z,-0.70
2019-02-07T05:30:40.631Z,-0.70
2019-02-07T05:33:24.721Z,-0.70
2019-02-07T05:36:25.923Z,-0.50
2019-02-07T05:39:13.797Z,-0.60
2019-02-07T05:42:09.071Z,-0.60
2019-02-07T05:45:16.702Z,-0.60
2019-02-07T05:48:08.264Z,-0.70
2019-02-07T05:51:01.177Z,-0.80
2019-02-07T05:54:00.317Z,-0.70
2019-02-07T05:56:54.356Z,-0.70
2019-02-07T05:59:44.957Z,-0.70
2019-02-07T06:02:44.358Z,-0.70
2019-02-07T06:05:51.835Z,-0.70
2019-02-07T06:08:51.101Z,-0.70
2019-02-07T06:11:55.498Z,-0.70
2019-02-07T06:14:51.396Z,-0.70
2019-02-07T06:17:33.999Z,-0.60
2019-02-07T06:20:44.526Z,-0.60
2019-02-07T06:23:48.965Z,-0.50
2019-02-07T06:26:40.823Z,-0.50
2019-02-07T06:29:25.710Z,-0.40
2019-02-07T06:32:17.638Z,-0.40
2019-02-07T06:35:08.397Z,-0.50
2019-02-07T06:37:54.239Z,-0.40
2019-02-07T06:40:52.749Z,-0.40
2019-02-07T06:44:17.834Z,-0.30
2019-02-07T06:47:01.770Z,-0.30
2019-02-07T06:50:06.295Z,-0.30
2019-02-07T06:53:11.416Z,-0.30
2019-02-07T06:56:08.848Z,-0.30
2019-02-07T07:17:33.580Z,-0.20
2019-02-07T07:21:18.407Z,-0.20
2019-02-07T07:24:22.520Z,-0.20
2019-02-07T07:27:03.004Z,-0.10
2019-02-07T07:29:57.369Z,-0.20
2019-02-07T07:32:38.333Z,-0.10
2019-02-07T07:35:30.270Z,0.00
2019-02-07T07:38:14.095Z,0.00
2019-02-07T07:41:11.831Z,0.00
2019-02-07T07:44:03.196Z,0.10
2019-02-07T07:47:01.355Z,0.10
2019-02-07T07:49:45.820Z,0.20
2019-02-07T07:52:39.379Z,0.20
2019-02-07T08:02:57.430Z,0.30
2019-02-07T08:06:12.566Z,0.30
2019-02-07T08:17:27.880Z,0.40
2019-02-07T08:20:53.995Z,0.60
2019-02-07T08:23:45.320Z,0.60
2019-02-07T08:26:52.735Z,0.70
2019-02-07T08:29:33.189Z,0.80
2019-02-07T08:32:17.732Z,0.80
2019-02-07T08:35:05.514Z,0.80
2019-02-07T08:37:59.608Z,0.90
2019-02-07T08:40:52.646Z,0.80
2019-02-07T08:43:53.899Z,0.90
2019-02-07T08:46:53.218Z,0.80
2019-02-07T08:49:35.812Z,0.90
2019-02-07T08:52:34.199Z,0.90
2019-02-07T08:55:22.324Z,1.00
2019-02-07T08:58:17.824Z,1.00
2019-02-07T09:00:56.089Z,1.10
2019-02-07T09:03:45.065Z,1.10
2019-02-07T09:06:28.013Z,1.10
2019-02-07T09:09:20.158Z,1.10
2019-02-07T09:12:08.298Z,1.10
2019-02-07T09:14:55.708Z,1.10
2019-02-07T09:17:32.337Z,1.20
2019-02-07T09:20:29.085Z,1.30
2019-02-07T09:23:16.553Z,1.30
2019-02-07T09:26:05.029Z,1.30
2019-02-07T09:29:00.217Z,1.40
2019-02-07T09:32:04.042Z,1.50
2019-02-07T09:35:01.952Z,1.60
2019-02-07T09:37:59.544Z,1.60
2019-02-07T09:40:36.725Z,1.60
2019-02-07T09:43:20.041Z,1.70
2019-02-07T09:46:26.731Z,1.70
2019-02-07T09:49:16.957Z,1.70
2019-02-07T09:52:04.170Z,1.80
2019-02-07T09:54:51.761Z,1.80
2019-02-07T09:57:39.122Z,1.80
2019-02-07T10:00:32.327Z,1.90
2019-02-07T10:03:18.441Z,1.90
2019-02-07T10:06:06.555Z,2.00
2019-02-07T10:08:50.745Z,2.00
2019-02-07T10:11:38.184Z,2.00
2019-02-07T10:14:25.023Z,2.00
2019-02-07T10:17:34.907Z,2.00
2019-02-07T10:20:39.450Z,2.00
2019-02-07T10:23:29.639Z,2.00
2019-02-07T10:26:16.908Z,1.90
2019-02-07T10:29:04.107Z,1.90
2019-02-07T10:31:59.476Z,1.90
2019-02-07T10:34:58.082Z,1.90
2019-02-07T10:37:45.429Z,1.90
2019-02-07T10:43:02.091Z,1.90
2019-02-07T10:47:30.441Z,1.90
2019-02-07T10:50:29.081Z,1.90
2019-02-07T10:53:22.745Z,2.00
2019-02-07T10:56:34.821Z,2.00
2019-02-07T10:59:26.596Z,2.00
2019-02-07T11:02:41.611Z,2.00
2019-02-07T11:05:32.381Z,2.20
2019-02-07T11:08:47.368Z,2.20
2019-02-07T11:15:36.854Z,2.40
2019-02-07T11:19:07.181Z,2.50
2019-02-07T11:25:26.860Z,2.60
2019-02-07T11:28:33.518Z,2.70
2019-02-07T11:32:28.426Z,2.70
2019-02-07T11:42:45.803Z,2.90
2019-02-07T11:49:07.139Z,3.00
2019-02-07T11:51:54.096Z,3.00
2019-02-07T11:54:54.934Z,3.00
2019-02-07T11:57:52.824Z,3.10
2019-02-07T12:00:36.066Z,3.30
2019-02-07T12:03:24.677Z,3.40
2019-02-07T12:06:16.052Z,3.50
2019-02-07T12:09:07.427Z,3.60
2019-02-07T12:11:44.353Z,3.70
2019-02-07T12:14:58.604Z,3.80
2019-02-07T12:33:56.302Z,4.20
2019-02-07T12:36:48.034Z,4.40
2019-02-07T12:39:35.465Z,4.50
2019-02-07T12:42:23.814Z,4.60
2019-02-07T12:45:21.214Z,4.70
2019-02-07T12:48:10.419Z,4.80
2019-02-07T12:50:57.906Z,4.90
2019-02-07T12:53:51.371Z,4.90
2019-02-07T13:00:27.228Z,4.90
2019-02-07T13:03:18.852Z,4.90
2019-02-07T13:06:17.397Z,4.90
2019-02-07T13:09:00.463Z,5.00
2019-02-07T13:11:48.921Z,4.90
2019-02-07T13:14:34.318Z,4.90
2019-02-07T13:18:00.062Z,4.90
2019-02-07T13:24:10.516Z,5.00
2019-02-07T13:34:08.746Z,5.20
2019-02-07T13:37:30.095Z,5.20
2019-02-07T13:40:29.177Z,5.20
2019-02-07T13:43:19.147Z,5.20
2019-02-07T14:14:03.400Z,6.00
2019-02-07T14:17:39.931Z,5.90
2019-02-07T14:20:44.485Z,5.80
2019-02-07T14:31:34.348Z,5.60
2019-02-07T14:34:18.267Z,5.50
2019-02-07T14:38:00.022Z,5.40
2019-02-07T14:40:36.021Z,5.40
2019-02-07T14:46:45.229Z,5.20
2019-02-07T14:49:20.696Z,5.10
2019-02-07T14:52:16.472Z,5.10
2019-02-07T14:54:49.702Z,5.00
2019-02-07T14:58:21.729Z,5.00
2019-02-07T15:09:25.849Z,5.00
2019-02-07T15:41:44.634Z,4.50
2019-02-07T15:44:53.813Z,4.50
2019-02-07T15:47:39.051Z,4.50
2019-02-07T15:53:57.415Z,4.50
2019-02-07T16:00:59.130Z,4.30
2019-02-07T16:03:35.073Z,4.30
2019-02-07T16:06:13.023Z,4.30
2019-02-07T16:09:20.959Z,4.30
2019-02-07T16:20:26.575Z,4.30
2019-02-07T16:23:03.824Z,4.30
2019-02-07T16:25:48.571Z,4.20
2019-02-07T16:28:20.269Z,4.20
2019-02-07T16:30:49.697Z,4.10
2019-02-07T16:33:22.974Z,4.00
2019-02-07T16:35:52.889Z,4.00
2019-02-07T16:38:23.164Z,3.90
2019-02-07T16:40:55.078Z,3.90
2019-02-07T16:43:27.346Z,3.90
2019-02-07T16:49:30.336Z,3.80
2019-02-07T16:52:03.882Z,3.80
2019-02-07T16:54:33.913Z,3.70
2019-02-07T16:57:09.083Z,3.80
2019-02-07T16:59:46.982Z,3.80
2019-02-07T17:02:18.385Z,3.80
2019-02-07T17:04:53.569Z,3.70
2019-02-07T17:07:25.146Z,3.70
2019-02-07T17:09:56.025Z,3.60
2019-02-07T17:12:46.201Z,3.60
2019-02-07T17:15:17.615Z,3.60
2019-02-07T17:17:48.056Z,3.50
2019-02-07T17:20:25.967Z,3.50
2019-02-07T17:22:57.417Z,3.50
2019-02-07T17:25:39.228Z,3.50
2019-02-07T17:28:26.851Z,3.40
2019-02-07T17:31:00.646Z,3.40
2019-02-07T17:33:35.238Z,3.30
2019-02-07T17:36:07.817Z,3.40
2019-02-07T17:38:38.400Z,3.40
2019-02-07T17:41:08.910Z,3.30
2019-02-07T17:43:43.387Z,3.30
2019-02-07T17:46:15.970Z,3.30
2019-02-07T17:48:45.766Z,3.20
2019-02-07T17:51:22.848Z,3.20
2019-02-07T17:53:52.123Z,3.30
2019-02-07T17:56:21.914Z,3.30
2019-02-07T17:58:51.957Z,3.30
2019-02-07T18:01:21.503Z,3.20
2019-02-07T18:04:12.417Z,3.30
2019-02-07T18:28:24.597Z,3.30
2019-02-07T18:30:54.904Z,3.20
2019-02-07T18:33:27.624Z,3.20
2019-02-07T18:36:05.528Z,3.20
2019-02-07T18:38:40.258Z,3.20
2019-02-07T18:41:10.989Z,3.20
2019-02-07T18:43:41.392Z,3.10
2019-02-07T18:46:16.189Z,3.10
2019-02-07T18:48:54.430Z,3.20
2019-02-07T18:51:27.616Z,3.10
2019-02-07T18:54:02.911Z,3.10
2019-02-07T18:56:42.393Z,3.10
2019-02-07T18:59:12.811Z,3.20
2019-02-07T19:01:43.581Z,3.20
2019-02-07T19:04:15.115Z,3.20
2019-02-07T19:06:49.683Z,3.20
2019-02-07T19:09:27.709Z,3.20
2019-02-07T19:11:58.359Z,3.20
2019-02-07T19:14:30.407Z,3.20
2019-02-07T19:17:04.545Z,3.20
2019-02-07T19:19:42.939Z,3.20
2019-02-07T19:22:16.281Z,3.20
2019-02-07T19:24:56.544Z,3.30
2019-02-07T19:27:40.799Z,3.20
2019-02-07T19:30:20.921Z,3.20
2019-02-07T19:32:53.798Z,3.20
2019-02-07T19:35:25.550Z,3.20
2019-02-07T19:37:56.278Z,3.20
2019-02-07T19:40:33.134Z,3.20
2019-02-07T19:43:04.052Z,3.20
2019-02-07T19:45:38.168Z,3.20
2019-02-07T19:48:09.925Z,3.10
2019-02-07T19:50:41.760Z,3.10
2019-02-07T19:53:18.243Z,3.10
2019-02-07T19:55:49.109Z,3.00
2019-02-07T19:58:19.865Z,3.00
2019-02-07T20:00:50.154Z,3.00
2019-02-07T20:03:24.354Z,3.00
2019-02-07T20:05:54.531Z,3.00
2019-02-07T20:08:28.676Z,2.90
2019-02-07T20:11:01.765Z,2.90
2019-02-07T20:13:35.125Z,2.90
2019-02-07T20:16:09.514Z,2.80
2019-02-07T20:18:43.171Z,2.80
2019-02-07T20:21:13.698Z,2.80
2019-02-07T20:23:45.289Z,2.80
2019-02-07T20:26:15.618Z,2.70
2019-02-07T20:28:51.809Z,2.70
2019-02-07T20:31:22.194Z,2.60
2019-02-07T20:33:59.364Z,2.70
2019-02-07T20:36:34.943Z,2.60
2019-02-07T20:39:09.812Z,2.60
2019-02-07T20:41:40.454Z,2.50
2019-02-07T20:44:17.925Z,2.50
2019-02-07T20:46:51.150Z,2.50
2019-02-07T20:49:20.869Z,2.40
2019-02-07T20:51:51.615Z,2.40
2019-02-07T20:54:35.314Z,2.40
2019-02-07T20:57:17.227Z,2.40
2019-02-07T20:59:47.517Z,2.40
2019-02-07T21:02:18.115Z,2.40
2019-02-07T21:04:47.970Z,2.40
2019-02-07T21:07:18.881Z,2.40
2019-02-07T21:09:54.164Z,2.40
2019-02-07T21:12:27.595Z,2.40
2019-02-07T21:14:59.150Z,2.40
2019-02-07T21:17:29.483Z,2.40
2019-02-07T21:20:00.643Z,2.40
2019-02-07T21:22:34.594Z,2.40
2019-02-07T21:25:06.452Z,2.40
2019-02-07T21:27:36.383Z,2.40
2019-02-07T21:30:09.972Z,2.30
2019-02-07T21:32:42.131Z,2.30
2019-02-07T21:35:31.424Z,2.30
2019-02-07T21:38:01.994Z,2.30
2019-02-07T21:40:33.092Z,2.30
2019-02-07T21:43:03.465Z,2.20
2019-02-07T21:45:35.569Z,2.20
2019-02-07T21:48:10.401Z,2.20
2019-02-07T21:50:44.291Z,2.20
2019-02-07T21:53:14.927Z,2.20
2019-02-07T21:55:48.237Z,2.10
2019-02-07T21:58:18.947Z,2.10
2019-02-07T22:00:48.746Z,2.10
2019-02-07T22:03:19.609Z,2.10
2019-02-07T22:05:50.316Z,2.10
2019-02-07T22:08:20.724Z,2.00
2019-02-07T22:10:51.918Z,2.00
2019-02-07T22:13:22.621Z,2.00
2019-02-07T22:15:55.351Z,2.10
2019-02-07T22:18:25.810Z,2.00
2019-02-07T22:21:00.955Z,2.10
2019-02-07T22:23:30.842Z,2.00
2019-02-07T22:26:00.316Z,2.00
2019-02-07T22:28:30.377Z,2.00
2019-02-07T22:31:00.488Z,2.00
2019-02-07T22:33:35.430Z,2.00
2019-02-07T22:36:06.643Z,2.10
2019-02-07T22:38:36.686Z,2.10
2019-02-07T22:41:07.202Z,2.00
2019-02-07T22:43:37.442Z,2.00
2019-02-07T22:46:08.506Z,2.00
2019-02-07T22:48:40.417Z,2.00
2019-02-07T22:51:12.233Z,2.00
2019-02-07T22:53:42.813Z,2.00
2019-02-07T22:56:12.940Z,2.00
2019-02-07T22:58:43.133Z,1.90
2019-02-07T23:01:24.071Z,1.90
2019-02-07T23:03:55.600Z,1.90
2019-02-07T23:06:26.320Z,1.80
2019-02-07T23:08:59.984Z,1.80
2019-02-07T23:11:30.427Z,1.80
2019-02-07T23:14:01.618Z,1.80
2019-02-07T23:17:00.166Z,1.80
2019-02-07T23:19:31.135Z,1.80
2019-02-07T23:22:01.338Z,1.70
2019-02-07T23:24:34.094Z,1.70
2019-02-07T23:27:08.860Z,1.70
2019-02-07T23:29:39.144Z,1.70
2019-02-07T23:32:09.093Z,1.70
2019-02-07T23:34:39.701Z,1.70
2019-02-07T23:37:10.489Z,1.60
2019-02-07T23:39:42.215Z,1.60
2019-02-07T23:42:12.241Z,1.60
2019-02-07T23:44:44.636Z,1.60
2019-02-07T23:47:14.722Z,1.50
2019-02-07T23:49:45.708Z,1.50
2019-02-07T23:52:16.732Z,1.50
2019-02-07T23:54:46.613Z,1.50
2019-02-07T23:57:16.300Z,1.50
2019-02-07T23:59:49.233Z,1.50
